Aeroporto :
LOGIN :

Iscrizione | Disclaimer

   EN    FR    IT 

 










Sommario :    VFR   VFR Marginale   IFR   IFR Intensivo   IFR Molto Intensivo
Visibilità : 
Base nubi : 
>= 8 km
>= 3000ft
5 / 8 km
1000 / 3000 ft
1500m / 5 km
500 / 1000 ft
800 / 1500m
200 / 500 ft
< 800m
< 200 ft
Simboli :   Temporali  Nebbia  Neve Forte  Precipitazioni Forti  Vento > 20 kt
SIGMETs :   Varie  Temporali  Ghiacco  Turbolenza  Onda orograficha  Ceneri Vulcaniche






- Altitudine del aeroporto : 1090 ft
- Codice IATA : CFE


LFLC - Clermont-Ferrand Auvergne

ULTIMO METAR :
  • 021500Z AUTO 35007KT 320V020 9999 OVC036 08/01 Q1033 NOSIG

METARs OBSOLETI :
  • 021430Z AUTO 36006KT 9999 OVC035 08/01 Q1033 NOSIG
  • 021400Z AUTO 01007KT 9999 OVC035 08/02 Q1033 NOSIG
  • 021330Z AUTO 01007KT 9999 OVC035 08/02 Q1033 NOSIG
  • 021300Z AUTO 01008KT 340V040 9999 SCT031 OVC038 09/01 Q1033 NOSIG

TAF TAF LFLC
Valido dal 02 a 12 ore il 03 a 12 ore UTC


021100Z 0212/0312 34004KT 9999 OVC050
ATIS : +33 4 73 62 74 38



MetMap, La meteo Aeronautica in un colpo d'occhio ! - Copyright ORBIFLY Dicembre 2007 - Disclaimer

ORBIFLY MET'MAP TEAM :

Programmazione e sviluppo : Alexandra Zaïnal
Concezione : Baudouin d'Aumeries
Supporto tecnico e logistico : Manuel Goepfert
Aiuto : Marc-Olivier Méhu
Aiuto per la traduzione : Arnaldo La Scala




FONTI E CREDITI :

   NOAA